Time;durP1;ratioP1;P1;durP2;ratioP2;P2;SDS_P1;SDS_P2;PMS_P1;PMS_P2;Temp;Humidity;BMP_temperature;BMP_pressure;BME280_temperature;BME280_humidity;BME280_pressure;Samples;Min_cycle;Max_cycle;Signal;HPM_P1;HPM_P2
2024/01/03 00:01:42;;;;;;;2.00;1.80;;;;;;;5.09;100.00;97048.93;109450;1253;58932;-74
2024/01/03 00:04:10;;;;;;;3.30;1.90;;;;;;;5.10;100.00;97040.92;109484;1252;66056;-75
2024/01/03 00:06:36;;;;;;;2.70;2.10;;;;;;;5.10;100.00;97039.31;109451;1252;60052;-74
2024/01/03 00:09:03;;;;;;;3.40;2.20;;;;;;;5.10;100.00;97039.84;109433;1252;65068;-74
2024/01/03 00:11:30;;;;;;;2.70;2.20;;;;;;;5.12;100.00;97034.23;109464;1252;59100;-75
2024/01/03 00:14:21;;;;;;;4.10;2.10;;;;;;;5.13;100.00;97033.11;109496;1252;59392;-74
2024/01/03 00:16:48;;;;;;;2.10;1.60;;;;;;;5.14;100.00;97030.44;109512;1252;67137;-74
2024/01/03 00:19:16;;;;;;;2.20;2.00;;;;;;;5.15;100.00;97027.34;109414;1252;60147;-74
2024/01/03 00:21:43;;;;;;;1.70;1.60;;;;;;;5.16;100.00;97022.48;109489;1252;65055;-74
2024/01/03 00:24:11;;;;;;;2.50;1.80;;;;;;;5.18;100.00;97021.16;109437;1256;59126;-74
2024/01/03 00:26:40;;;;;;;2.10;1.70;;;;;;;5.19;100.00;97022.11;109465;1252;58908;-74
2024/01/03 00:29:26;;;;;;;1.80;1.50;;;;;;;5.20;100.00;97018.17;109502;1252;67086;-75
2024/01/03 00:31:53;;;;;;;2.50;1.90;;;;;;;5.21;100.00;97017.02;109486;1252;60133;-73
2024/01/03 00:34:23;;;;;;;2.40;1.50;;;;;;;5.21;100.00;97012.61;109441;1252;65200;-74
2024/01/03 00:36:50;;;;;;;;;;;;;;;5.21;100.00;97010.48;109449;1252;58947;-74
2024/01/03 00:39:25;;;;;;;1.70;1.40;;;;;;;5.21;100.00;97002.93;109468;1252;59750;-74
2024/01/03 00:41:52;;;;;;;1.70;1.20;;;;;;;5.22;100.00;96998.44;109449;1252;66333;-74
2024/01/03 00:44:18;;;;;;;2.10;1.70;;;;;;;5.23;100.00;96995.74;109453;1253;59136;-74
2024/01/03 00:46:45;;;;;;;1.70;1.50;;;;;;;5.23;100.00;96988.88;109458;1252;65084;-74
2024/01/03 00:49:12;;;;;;;1.70;1.10;;;;;;;5.24;100.00;96984.39;109470;1252;58980;-74
2024/01/03 00:51:39;;;;;;;1.90;1.30;;;;;;;5.25;100.00;96977.08;109503;1252;59058;-74
2024/01/03 00:54:05;;;;;;;1.40;1.30;;;;;;;5.26;100.00;96977.87;109408;1252;67022;-74
2024/01/03 00:56:32;;;;;;;2.00;1.40;;;;;;;5.27;100.00;96976.19;109463;1252;61095;-74
2024/01/03 00:58:59;;;;;;;1.60;1.10;;;;;;;5.28;100.00;96974.02;109467;1252;64002;-74
2024/01/03 01:01:25;;;;;;;1.40;1.20;;;;;;;5.29;100.00;96968.00;109426;1252;59232;-75
2024/01/03 01:03:52;;;;;;;1.90;1.40;;;;;;;5.29;100.00;96962.72;109461;1252;59357;-75
2024/01/03 01:06:18;;;;;;;1.20;1.10;;;;;;;5.29;100.00;96959.03;109437;1253;66018;-74
2024/01/03 01:08:45;;;;;;;1.90;1.20;;;;;;;5.30;100.00;96957.15;109517;1252;60189;-75
2024/01/03 01:11:12;;;;;;;1.30;1.20;;;;;;;5.31;100.00;96951.10;109458;1252;65070;-75
2024/01/03 01:13:39;;;;;;;1.20;1.10;;;;;;;5.31;100.00;96942.84;109464;1252;59212;-74
2024/01/03 01:16:05;;;;;;;1.10;1.00;;;;;;;5.32;100.00;96936.98;109324;1252;59181;-75
2024/01/03 01:18:32;;;;;;;0.80;0.80;;;;;;;5.32;100.00;96936.08;109215;1252;67017;-74
2024/01/03 01:20:58;;;;;;;1.20;1.10;;;;;;;5.33;100.00;96933.19;109453;1252;61026;-74
2024/01/03 01:23:25;;;;;;;1.10;1.00;;;;;;;5.33;100.00;96932.16;109499;1252;64009;-75
2024/01/03 01:25:52;;;;;;;1.10;0.80;;;;;;;5.33;100.00;96928.24;109464;1252;58989;-75
2024/01/03 01:28:18;;;;;;;1.80;1.20;;;;;;;5.34;100.00;96921.86;109539;1252;59424;-75
2024/01/03 01:30:45;;;;;;;1.40;1.10;;;;;;;5.34;100.00;96920.05;109475;1252;67091;-75
2024/01/03 01:33:11;;;;;;;1.20;1.00;;;;;;;5.34;100.00;96913.55;109472;1252;61108;-75
2024/01/03 01:35:38;;;;;;;0.90;0.70;;;;;;;5.34;100.00;96903.85;109439;1252;65307;-75
2024/01/03 01:38:06;;;;;;;1.10;0.80;;;;;;;5.35;100.00;96899.61;109491;1252;58991;-75
2024/01/03 01:40:32;;;;;;;1.20;0.90;;;;;;;5.35;100.00;96895.30;109411;1252;58965;-75
2024/01/03 01:42:59;;;;;;;1.50;1.30;;;;;;;5.37;100.00;96897.09;109483;1252;67036;-75
2024/01/03 01:45:26;;;;;;;2.10;1.00;;;;;;;5.38;100.00;96898.08;109463;1252;61092;-75
2024/01/03 01:47:52;;;;;;;1.70;1.10;;;;;;;5.39;100.00;96890.97;109468;1252;64099;-75
2024/01/03 01:50:19;;;;;;;1.30;0.80;;;;;;;5.42;100.00;96883.72;109512;1252;59000;-75
2024/01/03 01:52:48;;;;;;;1.90;1.20;;;;;;;5.44;100.00;96880.49;109477;1252;58873;-75
2024/01/03 01:55:15;;;;;;;1.20;0.80;;;;;;;5.46;100.00;96879.79;109470;1252;66006;-75
2024/01/03 01:57:42;;;;;;;2.00;1.10;;;;;;;5.49;100.00;96879.38;109455;1252;61016;-75
2024/01/03 02:00:10;;;;;;;1.20;0.80;;;;;;;5.52;100.00;96879.89;109470;1252;63277;-75
2024/01/03 02:02:37;;;;;;;1.20;0.90;;;;;;;5.54;100.00;96872.84;109476;1252;59073;-75
2024/01/03 02:05:03;;;;;;;0.80;0.80;;;;;;;5.55;100.00;96869.04;109439;1252;59233;-75
2024/01/03 02:07:30;;;;;;;2.10;0.80;;;;;;;5.57;100.00;96868.40;109448;1252;67369;-75
2024/01/03 02:09:57;;;;;;;1.10;0.70;;;;;;;5.57;100.00;96866.30;109508;1252;61055;-75
2024/01/03 02:12:30;;;;;;;1.00;0.60;;;;;;;5.57;100.00;96859.60;109461;1252;64042;-75
2024/01/03 02:14:56;;;;;;;1.20;0.90;;;;;;;5.58;100.00;96855.98;109482;1252;59090;-75
2024/01/03 02:17:23;;;;;;;1.00;0.90;;;;;;;5.58;100.00;96847.88;109515;1252;58967;-75
2024/01/03 02:19:50;;;;;;;1.20;0.90;;;;;;;5.59;100.00;96845.15;108521;1253;1002732;-75
2024/01/03 02:22:17;;;;;;;1.20;0.80;;;;;;;5.59;100.00;96845.30;109475;1252;59916;-75
2024/01/03 02:24:44;;;;;;;0.90;0.80;;;;;;;5.59;100.00;96841.09;109453;1253;63555;-75
2024/01/03 02:27:11;;;;;;;0.70;0.60;;;;;;;5.59;100.00;96838.81;109403;1252;59861;-75
2024/01/03 02:29:37;;;;;;;0.80;0.60;;;;;;;5.59;100.00;96840.71;109493;1252;60045;-74
2024/01/03 02:32:04;;;;;;;0.60;0.60;;;;;;;5.60;100.00;96844.91;109479;1252;67018;-74
2024/01/03 02:34:31;;;;;;;0.70;0.50;;;;;;;5.59;100.00;96840.35;109461;1256;60307;-74
2024/01/03 02:36:58;;;;;;;0.50;0.50;;;;;;;5.59;100.00;96831.73;109426;1253;64094;-74
2024/01/03 02:39:25;;;;;;;0.50;0.50;;;;;;;5.60;100.00;96835.40;109488;1252;58987;-76
2024/01/03 02:41:51;;;;;;;0.90;0.80;;;;;;;5.61;100.00;96837.80;109436;1252;59072;-74
2024/01/03 02:44:20;;;;;;;0.60;0.60;;;;;;;5.62;100.00;96836.30;109456;1252;67049;-74
2024/01/03 02:46:47;;;;;;;1.40;1.20;;;;;;;5.62;100.00;96831.70;109485;1252;60110;-73
2024/01/03 02:49:13;;;;;;;0.90;0.90;;;;;;;5.63;100.00;96832.52;109423;1252;65023;-73
2024/01/03 02:51:40;;;;;;;1.30;1.00;;;;;;;5.63;100.00;96844.63;109478;1252;58966;-73
2024/01/03 02:54:07;;;;;;;1.30;1.20;;;;;;;5.65;100.00;96843.77;109500;1252;59294;-73
2024/01/03 02:56:40;;;;;;;1.10;1.00;;;;;;;5.67;100.00;96829.70;109438;1252;67086;-72
2024/01/03 02:59:06;;;;;;;1.50;1.20;;;;;;;5.67;100.00;96830.19;109452;1252;60234;-74
2024/01/03 03:01:33;;;;;;;2.80;1.50;;;;;;;5.68;100.00;96834.91;109437;1252;64129;-74
2024/01/03 03:04:00;;;;;;;1.80;1.50;;;;;;;5.69;100.00;96835.37;109451;1253;59174;-74
2024/01/03 03:06:26;;;;;;;1.50;1.10;;;;;;;5.71;100.00;96830.42;109469;1253;58908;-74
2024/01/03 03:08:53;;;;;;;1.40;1.30;;;;;;;5.72;100.00;96823.11;109463;1252;65948;-74
2024/01/03 03:11:19;;;;;;;1.60;1.10;;;;;;;5.73;100.00;96823.76;109494;1252;61452;-73
2024/01/03 03:13:46;;;;;;;1.60;1.50;;;;;;;5.73;100.00;96820.00;109442;1253;64117;-75
2024/01/03 03:16:12;;;;;;;1.60;1.30;;;;;;;5.76;100.00;96814.90;109436;1253;59174;-74
2024/01/03 03:18:39;;;;;;;2.60;1.00;;;;;;;5.79;100.00;96815.82;109486;1252;59027;-74
2024/01/03 03:21:07;;;;;;;1.30;0.80;;;;;;;5.84;100.00;96814.02;109486;1252;67030;-74
2024/01/03 03:23:35;;;;;;;2.00;1.00;;;;;;;5.88;100.00;96810.89;109449;1252;61179;-74
2024/01/03 03:26:03;;;;;;;1.40;0.80;;;;;;;5.91;100.00;96813.77;109415;1252;65121;-73
2024/01/03 03:28:30;;;;;;;0.70;0.60;;;;;;;5.95;100.00;96814.02;109309;1252;59304;-73
2024/01/03 03:30:57;;;;;;;1.40;0.90;;;;;;;5.99;100.00;96815.30;109479;1252;59136;-74
2024/01/03 03:33:23;;;;;;;1.00;0.90;;;;;;;6.01;100.00;96820.02;109273;1252;67056;-73
2024/01/03 03:35:50;;;;;;;0.80;0.80;;;;;;;6.03;100.00;96817.60;109305;1252;59090;-73
2024/01/03 03:38:16;;;;;;;0.80;0.70;;;;;;;6.04;100.00;96817.33;109437;1253;65100;-73
2024/01/03 03:40:43;;;;;;;0.90;0.70;;;;;;;6.06;100.00;96819.48;109437;1252;58979;-73
2024/01/03 03:43:09;;;;;;;1.40;0.60;;;;;;;6.09;100.00;96820.81;109399;1252;59108;-74
2024/01/03 03:45:36;;;;;;;0.70;0.60;;;;;;;6.11;100.00;96814.63;109428;1252;65912;-73
2024/01/03 03:48:04;;;;;;;0.50;0.50;;;;;;;6.12;100.00;96818.58;109500;1252;61365;-74
2024/01/03 03:50:31;;;;;;;1.10;0.80;;;;;;;6.14;100.00;96826.14;109443;1252;65297;-74
2024/01/03 03:52:58;;;;;;;1.30;0.70;;;;;;;6.17;100.00;96824.40;109449;1253;58967;-74
2024/01/03 03:55:25;;;;;;;0.40;0.40;;;;;;;6.18;100.00;96819.23;109442;1253;59048;-74
2024/01/03 03:57:52;;;;;;;0.80;0.80;;;;;;;6.18;100.00;96819.51;109503;1252;66932;-74
2024/01/03 04:00:19;;;;;;;0.60;0.60;;;;;;;6.19;100.00;96815.05;109466;1252;61385;-74
2024/01/03 04:02:45;;;;;;;0.80;0.40;;;;;;;6.20;100.00;96815.00;109442;1252;64016;-74
2024/01/03 04:05:12;;;;;;;0.60;0.60;;;;;;;6.21;100.00;96820.89;109466;1254;59405;-75
2024/01/03 04:07:39;;;;;;;0.70;0.70;;;;;;;6.21;100.00;96823.11;109434;1253;59028;-73
2024/01/03 04:10:06;;;;;;;1.70;0.70;;;;;;;6.22;100.00;96818.11;109417;1253;67000;-73
2024/01/03 04:12:37;;;;;;;0.70;0.60;;;;;;;6.28;100.00;96814.45;109454;1253;61516;-74
2024/01/03 04:15:04;;;;;;;0.50;0.40;;;;;;;6.35;100.00;96817.67;109504;1254;65401;-75
2024/01/03 04:17:31;;;;;;;0.70;0.70;;;;;;;6.43;100.00;96818.68;109395;1257;59504;-75
2024/01/03 04:19:58;;;;;;;0.90;0.80;;;;;;;6.48;100.00;96817.88;109428;1253;59240;-75
2024/01/03 04:22:26;;;;;;;0.70;0.70;;;;;;;6.54;100.00;96825.25;109468;1253;66948;-74
2024/01/03 04:24:53;;;;;;;1.00;0.80;;;;;;;6.61;100.00;96832.66;109468;1254;61082;-75
2024/01/03 04:27:19;;;;;;;1.00;0.60;;;;;;;6.66;100.00;96828.29;109366;1254;65193;-74
2024/01/03 04:29:46;;;;;;;1.20;0.80;;;;;;;6.76;100.00;96827.77;109383;1252;58966;-74
2024/01/03 04:32:13;;;;;;;0.90;0.70;;;;;;;6.87;100.00;96829.55;109404;1254;58889;-74
2024/01/03 04:34:40;;;;;;;0.60;0.60;;;;;;;6.93;100.00;96826.01;109415;1254;66035;-74
2024/01/03 04:37:07;;;;;;;1.40;0.80;;;;;;;6.98;100.00;96827.67;109446;1252;59795;-74
2024/01/03 04:39:33;;;;;;;1.10;0.80;;;;;;;7.01;100.00;96829.66;109407;1253;62801;-74
2024/01/03 04:42:00;;;;;;;1.70;0.80;;;;;;;7.06;100.00;96829.84;109421;1252;59040;-74
2024/01/03 04:44:27;;;;;;;1.60;0.90;;;;;;;7.11;100.00;96833.98;109435;1253;59205;-73
2024/01/03 04:46:53;;;;;;;1.70;0.90;;;;;;;7.14;100.00;96832.61;109384;1252;67054;-74
2024/01/03 04:49:20;;;;;;;1.90;0.90;;;;;;;7.16;100.00;96831.41;109464;1252;61097;-73
2024/01/03 04:51:46;;;;;;;1.80;1.10;;;;;;;7.17;100.00;96831.48;109393;1252;65121;-73
2024/01/03 04:54:13;;;;;;;2.10;1.30;;;;;;;7.21;100.00;96833.64;109311;1252;59060;-73
2024/01/03 04:56:40;;;;;;;1.30;0.90;;;;;;;7.23;100.00;96833.05;109381;1254;59040;-74
2024/01/03 04:59:06;;;;;;;1.60;1.10;;;;;;;7.25;100.00;96832.54;109422;1253;67039;-74
2024/01/03 05:01:33;;;;;;;2.40;1.10;;;;;;;7.26;100.00;96833.00;109455;1255;59226;-75
2024/01/03 05:03:59;;;;;;;1.30;1.00;;;;;;;7.26;100.00;96830.52;109317;1253;63968;-74
2024/01/03 05:06:26;;;;;;;2.10;1.10;;;;;;;7.27;100.00;96833.23;109407;1253;59046;-74
2024/01/03 05:08:52;;;;;;;1.40;1.20;;;;;;;7.29;100.00;96834.72;109445;1254;58892;-74
2024/01/03 05:11:19;;;;;;;1.80;1.40;;;;;;;7.30;100.00;96837.23;109417;1252;66108;-73
2024/01/03 05:13:46;;;;;;;1.40;1.20;;;;;;;7.31;100.00;96838.27;109468;1254;60044;-75
2024/01/03 05:16:13;;;;;;;2.10;1.90;;;;;;;7.31;100.00;96843.73;109414;1253;64995;-73
2024/01/03 05:18:39;;;;;;;1.80;1.50;;;;;;;7.32;100.00;96841.86;109412;1253;58951;-74
2024/01/03 05:21:06;;;;;;;2.10;1.50;;;;;;;7.33;100.00;96844.40;109470;1253;59792;-75
2024/01/03 05:23:33;;;;;;;1.90;1.60;;;;;;;7.35;100.00;96842.46;109353;1252;66144;-75
2024/01/03 05:25:59;;;;;;;2.10;1.50;;;;;;;7.37;100.00;96846.32;109411;1255;60256;-74
2024/01/03 05:28:26;;;;;;;2.70;2.00;;;;;;;7.38;100.00;96842.52;109400;1252;64266;-75
2024/01/03 05:30:53;;;;;;;4.30;1.70;;;;;;;7.39;100.00;96841.19;109397;1254;58892;-75
2024/01/03 05:33:19;;;;;;;3.20;1.90;;;;;;;7.40;100.00;96843.38;109445;1252;59165;-74
2024/01/03 05:35:46;;;;;;;2.30;1.70;;;;;;;7.41;100.00;96846.52;109425;1253;67110;-74
2024/01/03 05:38:13;;;;;;;3.10;1.80;;;;;;;7.42;100.00;96849.25;109381;1254;61027;-74
2024/01/03 05:40:39;;;;;;;2.00;1.50;;;;;;;7.44;100.00;96842.00;109406;1254;64201;-74
2024/01/03 05:43:06;;;;;;;3.90;2.20;;;;;;;7.46;100.00;96837.05;109367;1254;59230;-74
2024/01/03 05:45:33;;;;;;;2.40;1.90;;;;;;;7.48;100.00;96840.59;109433;1254;58889;-75
2024/01/03 05:47:59;;;;;;;2.00;1.60;;;;;;;7.51;100.00;96844.73;109441;1254;67213;-74
2024/01/03 05:50:26;;;;;;;1.80;1.70;;;;;;;7.57;100.00;96847.05;109310;1254;60631;-74
2024/01/03 05:52:52;;;;;;;1.80;1.30;;;;;;;7.64;100.00;96850.58;109406;1253;64053;-74
2024/01/03 05:55:19;;;;;;;1.60;1.40;;;;;;;7.73;100.00;96846.86;109420;1254;59163;-74
2024/01/03 05:57:45;;;;;;;2.50;1.50;;;;;;;7.78;100.00;96848.16;109322;1253;59021;-74
2024/01/03 06:00:14;;;;;;;2.00;1.50;;;;;;;7.81;100.00;96853.70;109458;1252;67266;-74
2024/01/03 06:02:42;;;;;;;2.30;1.20;;;;;;;7.84;100.00;96856.63;109323;1254;61380;-74
2024/01/03 06:05:10;;;;;;;1.60;1.30;;;;;;;7.86;100.00;96854.67;109430;1253;65045;-73
2024/01/03 06:07:37;;;;;;;2.30;1.30;;;;;;;7.88;100.00;96854.13;109436;1252;59019;-74
2024/01/03 06:10:04;;;;;;;3.40;1.70;;;;;;;7.91;100.00;96857.76;109392;1252;59181;-74
2024/01/03 06:12:31;;;;;;;2.80;1.80;;;;;;;7.93;100.00;96853.71;109426;1253;66041;-74
2024/01/03 06:14:57;;;;;;;3.20;1.80;;;;;;;7.92;100.00;96850.64;109463;1252;61504;-74
2024/01/03 06:17:24;;;;;;;1.70;1.20;;;;;;;7.89;100.00;96854.54;109413;1252;65052;-74
2024/01/03 06:19:50;;;;;;;1.90;1.30;;;;;;;7.87;100.00;96864.80;109419;1252;59261;-74
2024/01/03 06:22:17;;;;;;;1.90;1.50;;;;;;;7.84;100.00;96865.42;109462;1253;59308;-74
2024/01/03 06:24:43;;;;;;;2.20;1.40;;;;;;;7.83;100.00;96871.67;109459;1253;67342;-75
2024/01/03 06:27:10;;;;;;;2.00;1.30;;;;;;;7.83;100.00;96867.16;109433;1253;61202;-76
2024/01/03 06:29:36;;;;;;;1.30;1.20;;;;;;;7.84;100.00;96865.12;109124;1253;64062;-76
2024/01/03 06:32:03;;;;;;;1.50;1.30;;;;;;;7.88;100.00;96874.14;109452;1254;58972;-76
2024/01/03 06:34:29;;;;;;;2.50;1.30;;;;;;;7.90;100.00;96880.84;109469;1252;58971;-73
2024/01/03 06:36:57;;;;;;;1.40;1.20;;;;;;;7.91;100.00;96887.06;109455;1253;67011;-76
2024/01/03 06:39:23;;;;;;;1.90;1.20;;;;;;;7.93;100.00;96887.48;109453;1254;58997;-74
2024/01/03 06:41:50;;;;;;;2.10;1.00;;;;;;;7.97;100.00;96888.87;109447;1252;63915;-74
2024/01/03 06:44:17;;;;;;;1.50;1.00;;;;;;;8.03;100.00;96886.77;109435;1253;59051;-75
2024/01/03 06:46:43;;;;;;;1.60;1.10;;;;;;;8.08;100.00;96888.73;109429;1252;59035;-76
2024/01/03 06:49:10;;;;;;;1.90;1.00;;;;;;;8.14;100.00;96894.42;109430;1253;65885;-75
2024/01/03 06:51:36;;;;;;;0.80;0.80;;;;;;;8.19;100.00;96890.46;109472;1253;61044;-75
2024/01/03 06:54:03;;;;;;;1.30;1.20;;;;;;;8.21;100.00;96894.83;109468;1253;63907;-76
2024/01/03 06:56:29;;;;;;;3.30;1.60;;;;;;;8.23;100.00;96894.85;109435;1253;59339;-74
2024/01/03 06:58:57;;;;;;;1.10;1.10;;;;;;;8.26;100.00;96899.16;109422;1254;59502;-75
2024/01/03 07:01:25;;;;;;;2.70;1.20;;;;;;;8.28;100.00;96895.23;109325;1252;65986;-73
2024/01/03 07:03:52;;;;;;;1.10;0.90;;;;;;;8.32;100.00;96895.18;109472;1253;61120;-74
2024/01/03 07:06:18;;;;;;;1.30;1.20;;;;;;;8.37;100.00;96896.90;109440;1251;64273;-74
2024/01/03 07:08:46;;;;;;;2.30;1.10;;;;;;;8.39;100.00;96900.65;109543;1251;59001;-74
2024/01/03 07:11:12;;;;;;;1.40;1.10;;;;;;;8.40;100.00;96900.94;109508;1251;58972;-74
2024/01/03 07:13:39;;;;;;;3.60;1.30;;;;;;;8.41;100.00;96902.42;109495;1251;66857;-74
2024/01/03 07:16:05;;;;;;;1.70;1.40;;;;;;;8.43;100.00;96901.33;109521;1251;60925;-74
2024/01/03 07:18:32;;;;;;;3.20;1.40;;;;;;;8.44;100.00;96901.81;109535;1251;64275;-74
2024/01/03 07:20:58;;;;;;;1.50;1.20;;;;;;;8.46;100.00;96906.77;109484;1251;58979;-74
2024/01/03 07:23:25;;;;;;;1.20;1.00;;;;;;;8.48;100.00;96907.67;109494;1251;59145;-74
2024/01/03 07:25:51;;;;;;;1.10;0.90;;;;;;;8.51;100.00;96906.05;109503;1251;65990;-75
2024/01/03 07:28:19;;;;;;;1.10;1.00;;;;;;;8.57;100.00;96913.70;109366;1251;61386;-75
2024/01/03 07:30:45;;;;;;;3.30;1.20;;;;;;;8.62;100.00;96918.52;109488;1251;64050;-74
2024/01/03 07:33:12;;;;;;;1.70;1.20;;;;;;;8.66;100.00;96919.27;109505;1251;58996;-75
2024/01/03 07:35:39;;;;;;;2.90;1.80;;;;;;;8.70;100.00;96923.13;109549;1251;60122;-75
2024/01/03 07:38:05;;;;;;;1.60;1.20;;;;;;;8.73;100.00;96926.75;109485;1251;67059;-75
2024/01/03 07:40:32;;;;;;;1.70;1.20;;;;;;;8.76;100.00;96929.23;109514;1251;60087;-76
2024/01/03 07:42:58;;;;;;;1.60;1.10;;;;;;;8.81;100.00;96933.94;109483;1251;65112;-73
2024/01/03 07:45:25;;;;;;;1.80;1.20;;;;;;;8.84;100.00;96935.08;109469;1251;59011;-74
2024/01/03 07:47:53;;;;;;;1.70;1.10;;;;;;;8.84;100.00;96927.86;109532;1251;59529;-74
2024/01/03 07:50:20;;;;;;;1.80;1.30;;;;;;;8.80;100.00;96923.05;109532;1251;66965;-75
2024/01/03 07:52:46;;;;;;;1.60;1.20;;;;;;;8.76;100.00;96926.45;109573;1251;60007;-75
2024/01/03 07:55:13;;;;;;;1.50;0.90;;;;;;;8.72;100.00;96927.15;109235;1251;64068;-74
2024/01/03 07:57:40;;;;;;;2.10;1.10;;;;;;;8.69;100.00;96928.19;109506;1251;59034;-74
2024/01/03 08:00:07;;;;;;;1.20;0.90;;;;;;;8.67;100.00;96930.29;109525;1251;59115;-75
2024/01/03 08:02:34;;;;;;;3.30;1.90;;;;;;;8.67;100.00;96934.77;109368;1251;67332;-75
2024/01/03 08:05:01;;;;;;;2.50;1.30;;;;;;;8.67;100.00;96943.04;109539;1251;60169;-75
2024/01/03 08:07:27;;;;;;;2.20;1.40;;;;;;;8.68;100.00;96948.39;109494;1251;64037;-74
2024/01/03 08:09:54;;;;;;;2.50;1.60;;;;;;;8.73;100.00;96953.84;109487;1251;59276;-74
2024/01/03 08:12:20;;;;;;;1.40;1.30;;;;;;;8.76;100.00;96954.77;109557;1251;60116;-73
2024/01/03 08:14:47;;;;;;;2.40;1.50;;;;;;;8.79;100.00;96957.14;109498;1251;66991;-74
2024/01/03 08:17:14;;;;;;;1.90;0.90;;;;;;;8.83;100.00;96960.36;109525;1251;60258;-74
2024/01/03 08:19:41;;;;;;;3.70;1.30;;;;;;;8.86;100.00;96959.70;109528;1251;64035;-75
2024/01/03 08:22:07;;;;;;;1.40;1.00;;;;;;;8.91;100.00;96961.67;109508;1251;59039;-74
2024/01/03 08:24:34;;;;;;;1.70;1.30;;;;;;;9.01;100.00;96960.42;109496;1251;59006;-74
2024/01/03 08:27:00;;;;;;;1.90;1.00;;;;;;;9.10;100.00;96962.59;109448;1251;65942;-74
2024/01/03 08:29:29;;;;;;;1.00;0.90;;;;;;;9.15;100.00;96962.80;109536;1251;61101;-74
2024/01/03 08:31:56;;;;;;;1.10;0.90;;;;;;;9.19;100.00;96961.92;109487;1251;64171;-74
2024/01/03 08:34:23;;;;;;;1.70;1.00;;;;;;;9.23;100.00;96963.48;109502;1251;58986;-74
2024/01/03 08:36:49;;;;;;;2.00;1.00;;;;;;;9.28;100.00;96969.63;109507;1251;58909;-74
2024/01/03 08:39:16;;;;;;;1.40;1.10;;;;;;;9.31;100.00;96976.75;109521;1251;67075;-75
2024/01/03 08:41:42;;;;;;;1.30;1.20;;;;;;;9.31;100.00;96979.27;109531;1251;60810;-75
2024/01/03 08:44:09;;;;;;;2.10;1.00;;;;;;;9.30;100.00;96978.13;109514;1251;65090;-74
2024/01/03 08:46:40;;;;;;;1.20;0.90;;;;;;;9.30;100.00;96976.20;109494;1251;59026;-74
2024/01/03 08:49:08;;;;;;;1.90;1.00;;;;;;;9.33;100.00;96981.23;109521;1251;58915;-75
2024/01/03 08:51:35;;;;;;;1.90;1.00;;;;;;;9.37;100.00;96977.83;109511;1251;67015;-74
2024/01/03 08:54:01;;;;;;;1.40;1.00;;;;;;;9.39;100.00;96981.38;109509;1251;60041;-75
2024/01/03 08:56:28;;;;;;;1.70;1.10;;;;;;;9.39;100.00;96975.79;109533;1251;65105;-74
2024/01/03 08:58:54;;;;;;;1.90;1.40;;;;;;;9.41;100.00;96983.41;109467;1251;59063;-74
2024/01/03 09:01:22;;;;;;;2.70;1.40;;;;;;;9.45;100.00;96986.59;109514;1251;59312;-74
2024/01/03 09:03:49;;;;;;;1.20;1.10;;;;;;;9.48;100.00;96985.15;109510;1251;65971;-76
2024/01/03 09:06:25;;;;;;;1.50;1.20;;;;;;;9.52;100.00;96986.37;109511;1251;59935;-73
2024/01/03 09:08:52;;;;;;;2.80;1.10;;;;;;;9.57;100.00;96993.66;109520;1251;65121;-73
2024/01/03 09:11:22;;;;;;;2.00;1.10;;;;;;;9.64;100.00;96994.05;109465;1251;58932;-74
2024/01/03 09:13:49;;;;;;;1.30;0.90;;;;;;;9.73;100.00;96995.69;109493;1251;59436;-75
2024/01/03 09:16:22;;;;;;;1.90;1.20;;;;;;;9.80;100.00;96996.45;109498;1251;67154;-76
2024/01/03 09:18:50;;;;;;;1.60;1.10;;;;;;;9.86;100.00;96999.50;109533;1251;60371;-75
2024/01/03 09:21:17;;;;;;;1.90;1.30;;;;;;;9.93;100.00;97005.77;109495;1251;65260;-75
2024/01/03 09:23:43;;;;;;;2.50;1.40;;;;;;;9.97;100.00;97004.57;109307;1254;59024;-74
2024/01/03 09:26:11;;;;;;;1.70;1.20;;;;;;;9.99;100.00;97006.30;109428;1252;58993;-75
2024/01/03 09:28:38;;;;;;;2.50;1.20;;;;;;;10.03;100.00;97004.14;109378;1252;65990;-74
2024/01/03 09:31:06;;;;;;;2.20;1.10;;;;;;;10.07;100.00;97002.48;109330;1253;60142;-74
2024/01/03 09:33:33;;;;;;;2.80;1.30;;;;;;;10.13;100.00;96998.84;109426;1252;65116;-74
2024/01/03 09:36:00;;;;;;;1.40;1.00;;;;;;;10.18;100.00;97003.79;109326;1252;59241;-73
2024/01/03 09:38:27;;;;;;;2.40;1.30;;;;;;;10.22;100.00;97004.64;109408;1252;59327;-75
2024/01/03 09:40:54;;;;;;;4.00;1.20;;;;;;;10.24;100.00;97009.18;109420;1252;66976;-75
2024/01/03 09:43:21;;;;;;;3.30;1.20;;;;;;;10.24;100.00;97013.25;109351;1252;60638;-75
2024/01/03 09:45:49;;;;;;;2.40;1.60;;;;;;;10.24;100.00;97011.84;109420;1252;64101;-75
2024/01/03 09:48:16;;;;;;;3.00;1.10;;;;;;;10.26;100.00;97008.45;109444;1252;59037;-75
2024/01/03 09:50:43;;;;;;;1.60;1.40;;;;;;;10.27;100.00;97010.66;109184;1252;59398;-75
2024/01/03 09:53:11;;;;;;;2.90;1.30;;;;;;;10.27;100.00;97017.98;109400;1252;67076;-75
2024/01/03 09:55:38;;;;;;;2.30;1.40;;;;;;;10.26;100.00;97017.65;109415;1252;61104;-75
2024/01/03 09:58:05;;;;;;;1.50;1.00;;;;;;;10.28;100.00;97025.34;109448;1252;64092;-74
2024/01/03 10:00:33;;;;;;;2.30;1.50;;;;;;;10.33;100.00;97026.25;109312;1252;58989;-74
2024/01/03 10:03:03;;;;;;;2.10;1.00;;;;;;;10.43;100.00;97029.02;109390;1252;58969;-74
2024/01/03 10:05:30;;;;;;;1.60;1.10;;;;;;;10.49;100.00;97027.36;109462;1251;65670;-74
2024/01/03 10:07:57;;;;;;;1.30;0.80;;;;;;;10.52;100.00;97027.98;109518;1251;61025;-74
2024/01/03 10:10:34;;;;;;;1.90;1.20;;;;;;;10.51;100.00;97027.52;109520;1251;63954;-74
2024/01/03 10:13:18;;;;;;;2.50;1.20;;;;;;;10.50;100.00;97031.12;109543;1251;58969;-75
2024/01/03 10:15:46;;;;;;;1.60;1.10;;;;;;;10.51;100.00;97030.94;109302;1251;59226;-75
2024/01/03 10:18:17;;;;;;;2.40;1.30;;;;;;;10.56;100.00;97031.99;109497;1251;67229;-74
2024/01/03 10:20:44;;;;;;;1.80;1.10;;;;;;;10.62;100.00;97032.55;109507;1251;61058;-75
2024/01/03 10:23:19;;;;;;;2.00;1.10;;;;;;;10.62;100.00;97032.38;109449;1251;64054;-74
2024/01/03 10:25:45;;;;;;;1.70;1.30;;;;;;;10.62;100.00;97030.35;109517;1251;58881;-75
2024/01/03 10:28:16;;;;;;;1.60;1.30;;;;;;;10.62;100.00;97026.45;109542;1251;59021;-74
2024/01/03 10:30:43;;;;;;;1.20;1.10;;;;;;;10.63;100.00;97029.78;109516;1251;66057;-74
2024/01/03 10:33:10;;;;;;;1.70;1.00;;;;;;;10.65;100.00;97028.42;109536;1251;61028;-74
2024/01/03 10:35:41;;;;;;;1.70;1.00;;;;;;;10.70;100.00;97030.30;109533;1251;64791;-75
2024/01/03 10:38:09;;;;;;;1.20;1.00;;;;;;;10.74;100.00;97033.60;109532;1251;58950;-74
2024/01/03 10:40:43;;;;;;;1.30;1.00;;;;;;;10.76;100.00;97029.67;109521;1251;58997;-74
2024/01/03 10:43:10;;;;;;;1.10;0.90;;;;;;;10.80;100.00;97024.12;109425;1251;66188;-74
2024/01/03 10:45:37;;;;;;;1.10;0.90;;;;;;;10.82;100.00;97027.01;109534;1251;60115;-74
2024/01/03 10:48:04;;;;;;;1.80;1.10;;;;;;;10.77;100.00;97019.98;109510;1251;63890;-74
2024/01/03 10:50:31;;;;;;;1.80;1.30;;;;;;;10.71;100.00;97015.95;109343;1251;59125;-75
2024/01/03 10:52:59;;;;;;;2.20;1.30;;;;;;;10.65;100.00;97014.77;109545;1251;58923;-74
2024/01/03 10:55:29;;;;;;;2.00;1.20;;;;;;;10.58;100.00;97022.39;109537;1251;67274;-74
2024/01/03 10:57:58;;;;;;;1.90;1.20;;;;;;;10.53;100.00;97025.57;109522;1251;61414;-74
2024/01/03 11:00:47;;;;;;;2.00;1.20;;;;;;;10.51;100.00;97023.75;109528;1251;65215;-74
2024/01/03 11:03:31;;;;;;;1.90;1.00;;;;;;;10.52;100.00;97025.15;109482;1251;58976;-74
2024/01/03 11:06:07;;;;;;;2.30;1.50;;;;;;;10.52;100.00;97018.75;109538;1251;58870;-75
2024/01/03 11:08:45;;;;;;;2.40;1.50;;;;;;;10.52;100.00;97016.40;109550;1251;67146;-76
2024/01/03 11:11:13;;;;;;;3.10;1.80;;;;;;;10.57;100.00;97013.48;109499;1251;61126;-77
2024/01/03 11:13:40;;;;;;;2.30;1.90;;;;;;;10.59;100.00;97014.30;109509;1251;64033;-74
2024/01/03 11:16:35;;;;;;;2.30;1.90;;;;;;;10.56;100.00;97010.48;109406;1251;59048;-74
2024/01/03 11:19:02;;;;;;;3.70;2.40;;;;;;;10.50;100.00;97010.59;109520;1251;58823;-75
2024/01/03 11:21:31;;;;;;;2.80;1.20;;;;;;;10.46;100.00;97015.63;109552;1251;67338;-74
2024/01/03 11:23:58;;;;;;;1.90;1.40;;;;;;;10.43;100.00;97014.14;109546;1251;61173;-76
2024/01/03 11:27:14;;;;;;;2.80;1.60;;;;;;;10.42;100.00;97010.99;109519;1251;65209;-74